Dades meteomassalio
Diari Summary for Gener 28, 2017 Units:  Metric    English   Both
« Previous Day
Next Day »
Diari Semanal Mensual Anual Personalitzat
  Maxima: Minima: Mijana:
Temperatura: 11.9 °C 6.3 °C 8.5 °C
Rosada: 6.0 °C 1.9 °C 4.1 °C
Humitat: 93 % 54 % 75 %
Velocitat del vent: 51.8 km/h 0.0 km/h 25.3 km/h
Racha vent: 51.8 km/h - -
Vent:- - WNW
Pressio: 1026.0 hPa 1011.7 hPa -
Pluja: 7.9 mm    
Historical Graphs
 
 
Tabular Data for Gener 28, 2017
Time Temperature Dew Point Pressure Wind Wind Speed Wind Gust Humidity Rainfall Rate (Hourly) solar Conditions
00:03 8.3 °C 5.9 °C 1011.7 hPa WNW 31.5 km/h 31.5 km/h 85 % 0.0 mm 0.0 W/m2 RA
00:08 8.3 °C 5.6 °C 1012.1 hPa WNW 27.8 km/h 27.8 km/h 83 % 0.0 mm 0.0 W/m2 CLR
00:13 8.2 °C 5.5 °C 1012.1 hPa WNW 24.1 km/h 24.1 km/h 83 % 0.0 mm 0.0 W/m2 CLR
00:18 8.1 °C 5.4 °C 1012.1 hPa WNW 24.1 km/h 24.1 km/h 83 % 0.0 mm 0.0 W/m2 CLR
00:23 8.1 °C 5.5 °C 1012.1 hPa WNW 25.9 km/h 25.9 km/h 84 % 0.0 mm 0.0 W/m2 CLR
00:28 7.9 °C 5.5 °C 1012.1 hPa WNW 31.5 km/h 31.5 km/h 85 % 0.0 mm 0.0 W/m2 CLR
00:33 7.8 °C 5.6 °C 1012.4 hPa WNW 29.6 km/h 29.6 km/h 86 % 0.0 mm 0.0 W/m2 CLR
00:38 7.7 °C 5.5 °C 1012.4 hPa WNW 24.1 km/h 24.1 km/h 86 % 0.0 mm 0.0 W/m2 CLR
00:43 7.7 °C 5.5 °C 1012.4 hPa WNW 24.1 km/h 24.1 km/h 86 % 0.0 mm 0.0 W/m2 CLR
00:48 7.7 °C 5.7 °C 1012.4 hPa WNW 18.5 km/h 18.5 km/h 87 % 0.0 mm 0.0 W/m2 CLR
00:53 7.6 °C 5.6 °C 1012.4 hPa WNW 16.7 km/h 16.7 km/h 87 % 0.0 mm 0.0 W/m2 CLR
00:58 7.6 °C 5.7 °C 1012.8 hPa WNW 18.5 km/h 18.5 km/h 88 % 0.0 mm 0.0 W/m2 CLR
01:03 7.6 °C 5.8 °C 1012.8 hPa WNW 27.8 km/h 27.8 km/h 89 % 0.0 mm 0.0 W/m2 CLR
01:08 7.5 °C 5.9 °C 1012.8 hPa WNW 29.6 km/h 29.6 km/h 90 % 0.0 mm 0.0 W/m2 CLR
01:13 7.4 °C 6.0 °C 1012.8 hPa WNW 18.5 km/h 18.5 km/h 91 % 0.0 mm 0.0 W/m2 CLR
01:18 7.3 °C 5.9 °C 1012.8 hPa NW 18.5 km/h 18.5 km/h 91 % 0.3 mm 0.0 W/m2 RA
01:23 7.1 °C 5.7 °C 1012.8 hPa NW 20.4 km/h 20.4 km/h 91 % 0.3 mm 0.0 W/m2
01:28 7.0 °C 5.6 °C 1012.8 hPa NW 29.6 km/h 29.6 km/h 91 % 0.3 mm 0.0 W/m2 CLR
01:33 6.9 °C 5.7 °C 1012.8 hPa NW 29.0 km/h 29.0 km/h 92 % 0.3 mm 0.0 W/m2 CLR
01:38 6.8 °C 5.6 °C 1012.8 hPa NW 25.9 km/h 25.9 km/h 92 % 0.3 mm 0.0 W/m2 CLR
01:43 6.8 °C 5.6 °C 1012.8 hPa NW 24.1 km/h 24.1 km/h 92 % 0.3 mm 0.0 W/m2 CLR
01:48 6.8 °C 5.6 °C 1012.8 hPa NW 29.6 km/h 29.6 km/h 92 % 0.3 mm 0.0 W/m2 CLR
01:53 6.8 °C 5.6 °C 1012.8 hPa NW 25.9 km/h 25.9 km/h 92 % 0.3 mm 0.0 W/m2 CLR
01:58 6.7 °C 5.5 °C 1012.8 hPa NW 22.5 km/h 22.5 km/h 92 % 0.3 mm 0.0 W/m2 CLR
02:03 6.7 °C 5.5 °C 1012.8 hPa NW 31.5 km/h 31.5 km/h 92 % 0.3 mm 0.0 W/m2 CLR
02:08 6.7 °C 5.4 °C 1013.1 hPa NW 29.6 km/h 29.6 km/h 92 % 0.8 mm 0.0 W/m2 RA
02:13 6.7 °C 5.4 °C 1013.1 hPa NW 25.9 km/h 25.9 km/h 92 % 1.0 mm 0.0 W/m2 RA
02:18 6.7 °C 5.4 °C 1013.4 hPa NW 27.8 km/h 27.8 km/h 92 % 1.3 mm 0.0 W/m2 RA
02:23 6.6 °C 5.4 °C 1013.4 hPa NW 33.8 km/h 33.8 km/h 92 % 1.5 mm 0.0 W/m2 RA
02:28 6.6 °C 5.4 °C 1013.1 hPa NW 25.9 km/h 25.9 km/h 92 % 2.8 mm 0.0 W/m2 RA
02:33 6.6 °C 5.3 °C 1013.4 hPa NW 25.9 km/h 25.9 km/h 92 % 3.3 mm 0.0 W/m2 RA
02:38 6.6 °C 5.5 °C 1013.4 hPa NW 22.2 km/h 22.2 km/h 93 % 3.6 mm 0.0 W/m2 RA
02:43 6.6 °C 5.4 °C 1013.4 hPa NW 20.4 km/h 20.4 km/h 92 % 3.8 mm 0.0 W/m2 RA
02:48 6.6 °C 5.4 °C 1013.4 hPa NW 22.5 km/h 22.5 km/h 92 % 4.1 mm 0.0 W/m2 RA
02:53 6.6 °C 5.6 °C 1013.4 hPa NW 31.5 km/h 31.5 km/h 93 % 4.1 mm 0.0 W/m2 CLR
02:58 6.7 °C 5.6 °C 1013.8 hPa NW 33.3 km/h 33.3 km/h 93 % 4.3 mm 0.0 W/m2 RA
03:03 6.6 °C 5.6 °C 1013.8 hPa NW 31.5 km/h 31.5 km/h 93 % 4.3 mm 0.0 W/m2 CLR
03:08 6.6 °C 5.6 °C 1013.8 hPa NW 27.8 km/h 27.8 km/h 93 % 3.8 mm 0.0 W/m2 RA
03:13 6.6 °C 5.6 °C 1013.8 hPa NW 29.6 km/h 29.6 km/h 93 % 3.6 mm 0.0 W/m2 CLR
03:18 6.6 °C 5.6 °C 1013.8 hPa NW 25.9 km/h 25.9 km/h 93 % 3.3 mm 0.0 W/m2 CLR
03:23 6.6 °C 5.6 °C 1013.8 hPa NW 29.6 km/h 29.6 km/h 93 % 3.0 mm 0.0 W/m2 RA
03:28 6.6 °C 5.6 °C 1013.8 hPa NW 31.5 km/h 31.5 km/h 93 % 1.8 mm 0.0 W/m2 CLR
03:33 6.6 °C 5.6 °C 1014.1 hPa NW 18.5 km/h 18.5 km/h 93 % 1.5 mm 0.0 W/m2 RA
03:39 6.6 °C 5.5 °C 1014.1 hPa NW 25.9 km/h 25.9 km/h 93 % 1.3 mm 0.0 W/m2
03:44 6.6 °C 5.5 °C 1014.1 hPa WNW 22.2 km/h 22.2 km/h 93 % 1.0 mm 0.0 W/m2 CLR
03:49 6.6 °C 5.5 °C 1014.1 hPa NW 29.6 km/h 29.6 km/h 93 % 1.3 mm 0.0 W/m2 RA
03:54 6.6 °C 5.5 °C 1014.1 hPa NW 18.5 km/h 18.5 km/h 93 % 1.5 mm 0.0 W/m2 RA
03:59 6.6 °C 5.5 °C 1014.1 hPa NW 29.6 km/h 29.6 km/h 93 % 1.3 mm 0.0 W/m2
04:04 6.6 °C 5.6 °C 1014.1 hPa NW 20.4 km/h 20.4 km/h 93 % 1.5 mm 0.0 W/m2 RA
04:09 6.6 °C 5.6 °C 1014.1 hPa NW 27.8 km/h 27.8 km/h 93 % 1.3 mm 0.0 W/m2 CLR
04:14 6.7 °C 5.6 °C 1014.1 hPa NW 24.1 km/h 24.1 km/h 93 % 1.5 mm 0.0 W/m2 RA
04:19 6.7 °C 5.7 °C 1014.1 hPa NW 22.2 km/h 22.2 km/h 93 % 1.3 mm 0.0 W/m2 CLR
04:24 6.7 °C 5.7 °C 1014.4 hPa NW 24.1 km/h 24.1 km/h 93 % 1.3 mm 0.0 W/m2 CLR
04:28 6.7 °C 5.7 °C 1014.4 hPa NW 22.2 km/h 22.2 km/h 93 % 1.3 mm 0.0 W/m2 CLR
04:33 6.7 °C 5.7 °C 1014.4 hPa NW 16.7 km/h 16.7 km/h 93 % 1.0 mm 0.0 W/m2 CLR
04:38 6.7 °C 5.7 °C 1014.4 hPa NW 31.5 km/h 31.5 km/h 93 % 1.0 mm 0.0 W/m2 CLR
04:43 6.8 °C 5.7 °C 1014.8 hPa NW 22.5 km/h 22.5 km/h 93 % 1.0 mm 0.0 W/m2 CLR
04:48 6.8 °C 5.7 °C 1014.8 hPa NW 18.5 km/h 18.5 km/h 93 % 0.5 mm 0.0 W/m2 CLR
04:53 6.8 °C 5.7 °C 1014.8 hPa NW 18.5 km/h 18.5 km/h 93 % 0.5 mm 0.0 W/m2 CLR
04:58 6.8 °C 5.7 °C 1014.8 hPa NW 22.2 km/h 22.2 km/h 93 % 0.5 mm 0.0 W/m2 CLR
05:03 6.8 °C 5.7 °C 1014.8 hPa NW 22.2 km/h 22.2 km/h 93 % 0.3 mm 0.0 W/m2 CLR
05:13 6.7 °C 5.5 °C 1015.1 hPa NW 22.2 km/h 22.2 km/h 92 % 0.0 mm 0.0 W/m2 CLR
05:18 6.7 °C 5.7 °C 1015.1 hPa NW 22.2 km/h 22.2 km/h 93 % 0.0 mm 0.0 W/m2 CLR
05:23 6.7 °C 5.5 °C 1015.1 hPa NW 29.6 km/h 29.6 km/h 92 % 0.0 mm 0.0 W/m2 CLR
05:28 6.8 °C 5.6 °C 1015.5 hPa NW 22.2 km/h 22.2 km/h 92 % 0.0 mm 0.0 W/m2 CLR
05:33 6.8 °C 5.6 °C 1015.5 hPa NW 22.5 km/h 22.5 km/h 92 % 0.0 mm 0.0 W/m2 CLR
05:38 6.8 °C 5.6 °C 1015.5 hPa NW 31.5 km/h 31.5 km/h 92 % 0.0 mm 0.0 W/m2 CLR
05:43 6.8 °C 5.4 °C 1015.8 hPa NW 25.9 km/h 25.9 km/h 91 % 0.0 mm 0.0 W/m2 CLR
05:48 6.8 °C 5.4 °C 1015.8 hPa NW 27.4 km/h 27.4 km/h 91 % 0.0 mm 0.0 W/m2 CLR
05:53 6.8 °C 5.4 °C 1015.8 hPa NW 31.5 km/h 31.5 km/h 91 % 0.0 mm 0.0 W/m2 CLR
05:58 6.8 °C 5.4 °C 1015.8 hPa NW 31.5 km/h 31.5 km/h 91 % 0.0 mm 0.0 W/m2 CLR
06:03 6.7 °C 5.3 °C 1015.8 hPa NW 18.5 km/h 18.5 km/h 91 % 0.0 mm 0.0 W/m2 CLR
06:08 6.7 °C 5.3 °C 1016.1 hPa NW 20.4 km/h 20.4 km/h 91 % 0.0 mm 0.0 W/m2 CLR
06:13 6.7 °C 5.3 °C 1016.1 hPa NW 24.1 km/h 24.1 km/h 91 % 0.0 mm 0.0 W/m2 CLR
06:18 6.7 °C 5.3 °C 1016.5 hPa NW 24.1 km/h 24.1 km/h 91 % 0.0 mm 0.0 W/m2 CLR
06:23 6.7 °C 5.3 °C 1016.5 hPa NW 27.8 km/h 27.8 km/h 91 % 0.0 mm 0.0 W/m2 CLR
06:28 6.7 °C 5.3 °C 1016.5 hPa NW 29.6 km/h 29.6 km/h 91 % 0.0 mm 0.0 W/m2 CLR
06:33 6.6 °C 5.2 °C 1016.5 hPa NW 22.5 km/h 22.5 km/h 91 % 0.5 mm 0.0 W/m2 RA
06:38 6.6 °C 5.2 °C 1016.5 hPa NW 31.5 km/h 31.5 km/h 91 % 0.5 mm 0.0 W/m2
06:43 6.5 °C 5.1 °C 1016.5 hPa NW 33.3 km/h 33.3 km/h 91 % 0.5 mm 0.0 W/m2 RA
06:48 6.5 °C 5.1 °C 1016.8 hPa NW 27.8 km/h 27.8 km/h 91 % 0.8 mm 0.0 W/m2 RA
06:53 6.4 °C 5.1 °C 1016.8 hPa NW 25.9 km/h 25.9 km/h 91 % 1.0 mm 0.0 W/m2 RA
06:58 6.4 °C 5.1 °C 1016.8 hPa NW 22.2 km/h 22.2 km/h 91 % 1.0 mm 0.0 W/m2
07:03 6.4 °C 5.0 °C 1016.8 hPa NW 29.0 km/h 29.0 km/h 91 % 1.3 mm 0.0 W/m2 RA
07:08 6.4 °C 5.0 °C 1016.8 hPa NW 24.1 km/h 24.1 km/h 91 % 1.3 mm 0.0 W/m2 CLR
07:13 6.4 °C 5.0 °C 1017.2 hPa NW 24.1 km/h 24.1 km/h 91 % 1.5 mm 0.0 W/m2 RA
07:18 6.3 °C 4.9 °C 1017.2 hPa NW 25.7 km/h 25.7 km/h 91 % 1.5 mm 0.0 W/m2 CLR
07:23 6.3 °C 4.9 °C 1017.2 hPa NW 22.2 km/h 22.2 km/h 91 % 1.5 mm 0.0 W/m2 CLR
07:28 6.3 °C 4.9 °C 1017.5 hPa NW 22.2 km/h 22.2 km/h 91 % 1.8 mm 0.0 W/m2 RA
07:33 6.4 °C 4.9 °C 1017.5 hPa NW 22.2 km/h 22.2 km/h 90 % 1.5 mm 0.0 W/m2 CLR
07:38 6.4 °C 4.9 °C 1017.5 hPa NW 29.6 km/h 29.6 km/h 90 % 1.5 mm 0.0 W/m2 CLR
07:43 6.4 °C 4.9 °C 1017.5 hPa NW 20.4 km/h 20.4 km/h 90 % 1.3 mm 0.0 W/m2 CLR
07:48 6.4 °C 4.9 °C 1017.8 hPa NW 29.6 km/h 29.6 km/h 90 % 1.0 mm 0.0 W/m2 CLR
07:53 6.5 °C 4.8 °C 1017.8 hPa NW 31.5 km/h 31.5 km/h 89 % 0.8 mm 0.0 W/m2 CLR
07:58 6.6 °C 4.9 °C 1017.8 hPa NW 35.2 km/h 35.2 km/h 89 % 0.8 mm 0.0 W/m2 CLR
08:03 6.6 °C 4.8 °C 1017.8 hPa NW 35.2 km/h 35.2 km/h 88 % 0.5 mm 0.0 W/m2 OVC
08:08 6.6 °C 4.8 °C 1018.2 hPa NW 27.8 km/h 27.8 km/h 88 % 0.5 mm 0.0 W/m2 OVC
08:13 6.6 °C 4.8 °C 1018.2 hPa NW 29.6 km/h 29.6 km/h 88 % 0.5 mm 0.0 W/m2 OVC
08:18 6.7 °C 4.8 °C 1018.2 hPa NW 29.6 km/h 29.6 km/h 88 % 0.5 mm 0.0 W/m2 OVC
08:23 6.6 °C 4.8 °C 1018.2 hPa NW 20.4 km/h 20.4 km/h 88 % 0.5 mm 0.0 W/m2 OVC
08:28 6.6 °C 4.8 °C 1018.2 hPa WNW 16.7 km/h 16.7 km/h 88 % 0.0 mm 0.0 W/m2 OVC
08:33 6.7 °C 4.8 °C 1018.5 hPa WNW 18.5 km/h 18.5 km/h 88 % 0.0 mm 5.0 W/m2 OVC
08:38 6.7 °C 4.7 °C 1018.5 hPa WNW 22.2 km/h 22.2 km/h 87 % 0.0 mm 7.0 W/m2 BKN
08:43 6.8 °C 4.8 °C 1018.5 hPa NW 22.2 km/h 22.2 km/h 87 % 0.0 mm 11.0 W/m2 BKN
08:48 6.8 °C 4.6 °C 1018.5 hPa WNW 17.7 km/h 17.7 km/h 86 % 0.0 mm 12.0 W/m2 BKN
08:53 6.8 °C 4.8 °C 1018.8 hPa WNW 24.1 km/h 24.1 km/h 87 % 0.0 mm 16.0 W/m2 BKN
08:59 6.8 °C 4.8 °C 1018.8 hPa NW 20.4 km/h 20.4 km/h 87 % 0.0 mm 18.0 W/m2 BKN
09:04 6.8 °C 4.7 °C 1018.8 hPa WNW 24.1 km/h 24.1 km/h 86 % 0.0 mm 23.0 W/m2 BKN
09:09 6.9 °C 4.7 °C 1018.8 hPa NW 24.1 km/h 24.1 km/h 86 % 0.0 mm 28.0 W/m2 BKN
09:14 7.0 °C 4.7 °C 1018.8 hPa NW 31.5 km/h 31.5 km/h 85 % 0.0 mm 33.0 W/m2 BKN
09:19 7.1 °C 4.8 °C 1019.2 hPa WNW 25.9 km/h 25.9 km/h 85 % 0.0 mm 39.0 W/m2 BKN
09:24 7.2 °C 4.7 °C 1019.2 hPa NW 22.5 km/h 22.5 km/h 84 % 0.0 mm 47.0 W/m2 BKN
09:29 7.2 °C 4.7 °C 1019.2 hPa NW 27.4 km/h 27.4 km/h 84 % 0.0 mm 53.0 W/m2 BKN
09:34 7.3 °C 4.6 °C 1019.2 hPa NW 29.6 km/h 29.6 km/h 83 % 0.0 mm 54.0 W/m2 SCT
09:39 7.4 °C 4.7 °C 1019.5 hPa NW 13.0 km/h 15.3 km/h 83 % 0.0 mm 60.0 W/m2 SCT
09:44 7.4 °C 4.6 °C 1019.5 hPa WNW 25.9 km/h 25.9 km/h 82 % 0.0 mm 74.0 W/m2 SCT
09:49 7.5 °C 4.6 °C 1019.5 hPa NW 33.3 km/h 33.3 km/h 82 % 0.0 mm 81.0 W/m2 FEW
09:54 7.6 °C 4.7 °C 1019.5 hPa NW 25.9 km/h 25.9 km/h 82 % 0.0 mm 84.0 W/m2 FEW
09:59 7.6 °C 4.6 °C 1019.9 hPa NW 24.1 km/h 24.1 km/h 81 % 0.0 mm 93.0 W/m2 FEW
10:04 7.7 °C 4.6 °C 1019.9 hPa NW 27.8 km/h 27.8 km/h 81 % 0.0 mm 102.0 W/m2 CLR
10:09 7.7 °C 4.5 °C 1019.9 hPa NW 25.9 km/h 25.9 km/h 80 % 0.0 mm 113.0 W/m2 CLR
10:14 7.8 °C 4.6 °C 1020.2 hPa NW 31.5 km/h 31.5 km/h 80 % 0.0 mm 132.0 W/m2 CLR
10:19 7.9 °C 4.7 °C 1020.2 hPa NW 29.6 km/h 29.6 km/h 80 % 0.0 mm 111.0 W/m2 CLR
10:24 7.9 °C 4.7 °C 1020.2 hPa NW 29.0 km/h 29.0 km/h 80 % 0.0 mm 120.0 W/m2 CLR
10:29 8.0 °C 4.6 °C 1020.2 hPa NW 24.1 km/h 24.1 km/h 79 % 0.0 mm 114.0 W/m2 CLR
10:34 8.0 °C 4.6 °C 1020.5 hPa NW 27.4 km/h 27.4 km/h 79 % 0.0 mm 135.0 W/m2 CLR
10:39 8.1 °C 4.7 °C 1020.5 hPa NW 25.9 km/h 25.9 km/h 79 % 0.0 mm 130.0 W/m2 CLR
10:44 8.1 °C 4.7 °C 1020.5 hPa NW 22.5 km/h 22.5 km/h 79 % 0.0 mm 137.0 W/m2 CLR
10:49 8.2 °C 4.6 °C 1020.5 hPa NW 29.6 km/h 29.6 km/h 78 % 0.0 mm 146.0 W/m2 CLR
10:54 8.2 °C 4.6 °C 1020.5 hPa NW 27.8 km/h 27.8 km/h 78 % 0.0 mm 169.0 W/m2 CLR
10:59 8.4 °C 4.8 °C 1020.5 hPa NW 29.6 km/h 29.6 km/h 78 % 0.0 mm 381.0 W/m2 CLR
11:04 8.6 °C 4.8 °C 1020.5 hPa NW 40.7 km/h 40.7 km/h 77 % 0.0 mm 339.0 W/m2 CLR
11:09 8.8 °C 4.8 °C 1020.5 hPa NW 35.2 km/h 35.2 km/h 76 % 0.0 mm 445.0 W/m2 CLR
11:14 9.1 °C 5.1 °C 1020.9 hPa NW 35.2 km/h 35.2 km/h 76 % 0.0 mm 513.0 W/m2 CLR
11:19 9.4 °C 5.4 °C 1020.9 hPa NW 35.2 km/h 35.2 km/h 76 % 0.0 mm 522.0 W/m2 CLR
11:24 9.4 °C 4.8 °C 1020.9 hPa NW 29.6 km/h 29.6 km/h 73 % 0.0 mm 385.0 W/m2 CLR
11:29 9.5 °C 5.1 °C 1020.9 hPa NW 37.0 km/h 37.0 km/h 74 % 0.0 mm 547.0 W/m2 CLR
11:34 9.6 °C 5.2 °C 1020.9 hPa NW 24.1 km/h 24.1 km/h 74 % 0.0 mm 457.0 W/m2 CLR
11:39 9.7 °C 4.9 °C 1020.9 hPa NW 42.6 km/h 42.6 km/h 72 % 0.0 mm 439.0 W/m2 CLR
11:44 9.8 °C 5.0 °C 1020.9 hPa NW 31.5 km/h 31.5 km/h 72 % 0.0 mm 441.0 W/m2 CLR
11:49 10.0 °C 5.4 °C 1020.9 hPa NW 30.6 km/h 30.6 km/h 73 % 0.0 mm 468.0 W/m2 CLR
11:54 10.2 °C 5.2 °C 1020.9 hPa NW 37.0 km/h 37.0 km/h 71 % 0.0 mm 504.0 W/m2 CLR
11:59 10.2 °C 4.2 °C 1020.9 hPa NW 51.8 km/h 51.8 km/h 66 % 0.0 mm 557.0 W/m2 CLR
12:04 10.2 °C 4.6 °C 1020.9 hPa NW 37.0 km/h 37.0 km/h 68 % 0.0 mm 533.0 W/m2 CLR
12:09 10.3 °C 4.2 °C 1020.9 hPa NW 50.0 km/h 50.0 km/h 66 % 0.0 mm 510.0 W/m2 CLR
12:14 10.3 °C 4.4 °C 1020.9 hPa NW 38.9 km/h 38.9 km/h 67 % 0.0 mm 499.0 W/m2 CLR
12:19 10.4 °C 4.6 °C 1020.9 hPa NW 37.0 km/h 37.0 km/h 67 % 0.0 mm 489.0 W/m2 CLR
12:24 10.6 °C 4.5 °C 1020.9 hPa NW 38.9 km/h 38.9 km/h 66 % 0.0 mm 490.0 W/m2 CLR
12:29 10.6 °C 4.0 °C 1020.9 hPa NW 46.3 km/h 46.3 km/h 64 % 0.0 mm 499.0 W/m2 CLR
12:34 10.6 °C 3.8 °C 1020.9 hPa NW 38.9 km/h 38.9 km/h 63 % 0.0 mm 503.0 W/m2 CLR
12:39 10.7 °C 3.7 °C 1020.9 hPa NW 44.4 km/h 44.4 km/h 62 % 0.0 mm 510.0 W/m2 CLR
12:44 10.8 °C 4.1 °C 1020.9 hPa NW 35.4 km/h 35.4 km/h 63 % 0.0 mm 520.0 W/m2 CLR
12:49 10.9 °C 4.3 °C 1020.9 hPa NW 29.6 km/h 29.6 km/h 64 % 0.0 mm 548.0 W/m2 CLR
12:54 11.0 °C 4.7 °C 1020.9 hPa NW 37.0 km/h 37.0 km/h 65 % 0.0 mm 494.0 W/m2 CLR
12:59 10.9 °C 4.6 °C 1020.9 hPa NW 31.5 km/h 31.5 km/h 65 % 0.0 mm 288.0 W/m2 CLR
13:04 10.6 °C 4.4 °C 1020.9 hPa NW 33.3 km/h 33.3 km/h 66 % 0.0 mm 285.0 W/m2 CLR
13:09 10.6 °C 4.2 °C 1020.9 hPa NW 46.3 km/h 46.3 km/h 65 % 0.0 mm 359.0 W/m2 CLR
13:14 10.8 °C 4.4 °C 1020.9 hPa NW 49.9 km/h 49.9 km/h 65 % 0.0 mm 656.0 W/m2 CLR
13:19 10.9 °C 4.3 °C 1020.9 hPa NW 42.6 km/h 42.6 km/h 64 % 0.0 mm 622.0 W/m2 CLR
13:24 10.9 °C 4.3 °C 1020.5 hPa NW 42.6 km/h 42.6 km/h 64 % 0.0 mm 629.0 W/m2 CLR
13:29 10.8 °C 4.0 °C 1020.5 hPa NW 40.7 km/h 40.7 km/h 63 % 0.0 mm 195.0 W/m2 CLR
13:34 10.6 °C 4.1 °C 1020.5 hPa NNW 38.9 km/h 38.9 km/h 64 % 0.0 mm 322.0 W/m2 CLR
13:44 10.5 °C 4.2 °C 1020.5 hPa NW 32.2 km/h 32.2 km/h 65 % 0.0 mm 272.0 W/m2 CLR
13:49 10.6 °C 4.4 °C 1020.5 hPa NW 37.0 km/h 37.0 km/h 66 % 0.0 mm 406.0 W/m2 CLR
13:50 10.6 °C 4.5 °C 1020.5 hPa NW 37.0 km/h 37.0 km/h 66 % 0.0 mm 503.0 W/m2 CLR
13:55 10.5 °C 4.2 °C 1020.5 hPa WNW 31.5 km/h 31.5 km/h 65 % 0.0 mm 139.0 W/m2 CLR
14:00 10.3 °C 4.1 °C 1020.5 hPa WNW 31.5 km/h 31.5 km/h 65 % 0.0 mm 127.0 W/m2 CLR
14:05 10.3 °C 4.0 °C 1020.5 hPa WNW 27.8 km/h 27.8 km/h 65 % 0.0 mm 149.0 W/m2 CLR
14:10 10.4 °C 3.9 °C 1020.5 hPa WNW 31.5 km/h 31.5 km/h 64 % 0.0 mm 378.0 W/m2 CLR
14:15 10.8 °C 4.5 °C 1020.5 hPa WNW 29.6 km/h 29.6 km/h 65 % 0.0 mm 517.0 W/m2 CLR
14:20 11.2 °C 4.2 °C 1020.5 hPa NW 37.0 km/h 37.0 km/h 62 % 0.0 mm 489.0 W/m2 CLR
14:25 11.3 °C 4.3 °C 1020.5 hPa NW 33.3 km/h 33.3 km/h 62 % 0.0 mm 473.0 W/m2 CLR
14:30 11.3 °C 4.3 °C 1020.5 hPa NW 29.6 km/h 29.6 km/h 62 % 0.0 mm 471.0 W/m2 CLR
14:35 11.4 °C 4.6 °C 1020.5 hPa NW 31.5 km/h 31.5 km/h 63 % 0.0 mm 464.0 W/m2 CLR
14:40 11.3 °C 3.8 °C 1020.5 hPa NW 35.4 km/h 35.4 km/h 60 % 0.0 mm 457.0 W/m2 CLR
14:45 11.4 °C 3.9 °C 1020.2 hPa NW 38.9 km/h 38.9 km/h 60 % 0.0 mm 450.0 W/m2 CLR
14:50 11.5 °C 3.8 °C 1020.5 hPa NW 38.9 km/h 38.9 km/h 59 % 0.0 mm 434.0 W/m2 CLR
14:55 11.5 °C 4.0 °C 1020.5 hPa NW 27.8 km/h 27.8 km/h 60 % 0.0 mm 434.0 W/m2 CLR
15:00 11.6 °C 4.1 °C 1020.5 hPa NW 35.2 km/h 35.2 km/h 60 % 0.0 mm 418.0 W/m2 CLR
15:05 11.6 °C 3.8 °C 1020.5 hPa NW 20.9 km/h 20.9 km/h 59 % 0.0 mm 380.0 W/m2 CLR
15:10 11.7 °C 3.9 °C 1020.5 hPa NW 29.6 km/h 29.6 km/h 59 % 0.0 mm 413.0 W/m2 CLR
15:15 11.8 °C 3.8 °C 1020.5 hPa NW 31.5 km/h 31.5 km/h 58 % 0.0 mm 403.0 W/m2 CLR
15:20 11.8 °C 4.3 °C 1020.5 hPa NW 29.6 km/h 29.6 km/h 60 % 0.0 mm 394.0 W/m2 CLR
15:25 11.9 °C 4.1 °C 1020.5 hPa NW 27.8 km/h 27.8 km/h 59 % 0.0 mm 385.0 W/m2 CLR
15:30 11.9 °C 4.7 °C 1020.5 hPa NW 24.1 km/h 24.1 km/h 61 % 0.0 mm 373.0 W/m2 CLR
15:35 11.9 °C 3.6 °C 1020.5 hPa NW 40.7 km/h 40.7 km/h 57 % 0.0 mm 366.0 W/m2 CLR
15:40 11.9 °C 4.1 °C 1020.9 hPa WNW 31.5 km/h 31.5 km/h 59 % 0.0 mm 353.0 W/m2 CLR
15:45 11.9 °C 4.1 °C 1020.9 hPa WNW 25.7 km/h 25.7 km/h 59 % 0.0 mm 334.0 W/m2 CLR
15:50 11.8 °C 3.8 °C 1020.9 hPa NW 29.6 km/h 29.6 km/h 58 % 0.0 mm 329.0 W/m2 CLR
15:55 11.7 °C 3.5 °C 1020.9 hPa NW 25.9 km/h 25.9 km/h 57 % 0.0 mm 316.0 W/m2 CLR
16:00 11.7 °C 4.2 °C 1021.2 hPa NW 22.5 km/h 22.5 km/h 60 % 0.0 mm 308.0 W/m2 CLR
16:05 11.8 °C 3.6 °C 1021.2 hPa NW 24.1 km/h 24.1 km/h 57 % 0.0 mm 295.0 W/m2 CLR
16:10 11.8 °C 3.6 °C 1021.2 hPa NW 31.5 km/h 31.5 km/h 57 % 0.0 mm 281.0 W/m2 CLR
16:15 11.8 °C 3.8 °C 1021.2 hPa NW 27.8 km/h 27.8 km/h 58 % 0.0 mm 267.0 W/m2 CLR
16:20 11.7 °C 3.7 °C 1021.2 hPa NW 24.1 km/h 24.1 km/h 58 % 0.0 mm 255.0 W/m2 CLR
16:25 11.7 °C 3.5 °C 1021.2 hPa NW 31.5 km/h 31.5 km/h 57 % 0.0 mm 244.0 W/m2 CLR
16:30 11.7 °C 3.7 °C 1021.2 hPa NW 31.5 km/h 31.5 km/h 58 % 0.0 mm 229.0 W/m2 CLR
16:35 11.8 °C 3.8 °C 1021.6 hPa WNW 20.4 km/h 20.4 km/h 58 % 0.0 mm 209.0 W/m2 CLR
16:40 11.8 °C 3.8 °C 1021.6 hPa WNW 20.9 km/h 20.9 km/h 58 % 0.0 mm 195.0 W/m2 CLR
16:45 11.7 °C 3.2 °C 1021.6 hPa NW 27.8 km/h 27.8 km/h 56 % 0.0 mm 183.0 W/m2 CLR
16:50 11.7 °C 2.7 °C 1021.6 hPa NW 25.9 km/h 25.9 km/h 54 % 0.0 mm 158.0 W/m2 CLR
16:55 11.7 °C 2.9 °C 1021.6 hPa NW 25.9 km/h 25.9 km/h 55 % 0.0 mm 146.0 W/m2 CLR
17:00 11.6 °C 3.1 °C 1021.6 hPa WNW 24.1 km/h 24.1 km/h 56 % 0.0 mm 109.0 W/m2 CLR
17:05 11.6 °C 2.8 °C 1021.6 hPa NW 22.2 km/h 22.2 km/h 55 % 0.0 mm 98.0 W/m2 CLR
17:06 11.6 °C 3.1 °C 1021.6 hPa NW 22.2 km/h 22.2 km/h 56 % 0.0 mm 98.0 W/m2 CLR
17:11 11.4 °C 2.9 °C 1021.9 hPa NW 18.5 km/h 18.5 km/h 56 % 0.0 mm 86.0 W/m2 CLR
17:16 11.3 °C 3.1 °C 1021.9 hPa NW 30.6 km/h 30.6 km/h 57 % 0.0 mm 67.0 W/m2 SCT
17:21 11.1 °C 3.2 °C 1021.9 hPa NW 24.1 km/h 24.1 km/h 58 % 0.0 mm 70.0 W/m2 FEW
17:26 11.1 °C 3.1 °C 1021.9 hPa NW 24.1 km/h 24.1 km/h 58 % 0.0 mm 56.0 W/m2 SCT
17:31 11.0 °C 3.3 °C 1021.9 hPa WNW 27.8 km/h 27.8 km/h 59 % 0.0 mm 42.0 W/m2 BKN
17:36 10.8 °C 3.1 °C 1021.9 hPa WNW 20.4 km/h 20.4 km/h 59 % 0.0 mm 23.0 W/m2 BKN
17:41 10.7 °C 3.0 °C 1021.9 hPa WNW 16.7 km/h 16.7 km/h 59 % 0.0 mm 19.0 W/m2 BKN
17:46 10.6 °C 2.9 °C 1022.2 hPa WNW 18.5 km/h 18.5 km/h 59 % 0.0 mm 16.0 W/m2 BKN
17:51 10.6 °C 2.9 °C 1022.2 hPa WNW 18.5 km/h 18.5 km/h 59 % 0.0 mm 11.0 W/m2 BKN
17:56 10.4 °C 3.0 °C 1022.2 hPa WNW 18.5 km/h 18.5 km/h 60 % 0.0 mm 9.0 W/m2 BKN
18:01 10.3 °C 2.7 °C 1022.2 hPa WNW 14.8 km/h 14.8 km/h 59 % 0.0 mm 7.0 W/m2 BKN
18:06 10.3 °C 2.7 °C 1022.2 hPa West 11.1 km/h 11.1 km/h 59 % 0.0 mm 5.0 W/m2 OVC
18:11 10.2 °C 2.6 °C 1022.2 hPa West 13.0 km/h 13.0 km/h 59 % 0.0 mm 0.0 W/m2 OVC
18:16 10.1 °C 2.7 °C 1022.6 hPa Calm     60 % 0.0 mm 0.0 W/m2 OVC
18:21 9.9 °C 2.6 °C 1022.6 hPa Calm     60 % 0.0 mm 0.0 W/m2 OVC
18:26 9.8 °C 2.7 °C 1022.6 hPa WNW 14.8 km/h 14.8 km/h 61 % 0.0 mm 0.0 W/m2 CLR
18:31 9.8 °C 2.8 °C 1022.6 hPa Calm     62 % 0.0 mm 0.0 W/m2 CLR
18:36 9.6 °C 2.7 °C 1022.9 hPa WNW 13.0 km/h 13.0 km/h 62 % 0.0 mm 0.0 W/m2 CLR
18:41 9.5 °C 2.8 °C 1022.9 hPa Calm     63 % 0.0 mm 0.0 W/m2 CLR
18:46 9.4 °C 2.7 °C 1022.9 hPa WNW 9.3 km/h 9.3 km/h 63 % 0.0 mm 0.0 W/m2 CLR
18:51 9.4 °C 2.7 °C 1023.2 hPa WNW 14.8 km/h 14.8 km/h 63 % 0.0 mm 0.0 W/m2 CLR
18:56 9.4 °C 2.4 °C 1023.2 hPa WNW 18.5 km/h 18.5 km/h 62 % 0.0 mm 0.0 W/m2 CLR
19:01 9.4 °C 2.4 °C 1023.2 hPa WNW 20.4 km/h 20.4 km/h 62 % 0.0 mm 0.0 W/m2 CLR
19:06 9.3 °C 2.4 °C 1023.2 hPa West 14.8 km/h 14.8 km/h 62 % 0.0 mm 0.0 W/m2 CLR
19:11 9.3 °C 2.4 °C 1023.2 hPa West 16.1 km/h 16.1 km/h 62 % 0.0 mm 0.0 W/m2 CLR
19:16 9.2 °C 2.3 °C 1023.2 hPa West 16.7 km/h 16.7 km/h 62 % 0.0 mm 0.0 W/m2 CLR
19:21 9.2 °C 2.3 °C 1023.2 hPa West 9.3 km/h 9.3 km/h 62 % 0.0 mm 0.0 W/m2 CLR
19:26 9.1 °C 2.4 °C 1023.6 hPa West 5.6 km/h   63 % 0.0 mm 0.0 W/m2 CLR
19:31 8.9 °C 2.3 °C 1023.6 hPa Calm     63 % 0.0 mm 0.0 W/m2 CLR
19:36 8.9 °C 2.4 °C 1023.9 hPa Calm     64 % 0.0 mm 0.0 W/m2 CLR
19:41 8.8 °C 2.4 °C 1023.9 hPa WSW 11.1 km/h 11.1 km/h 64 % 0.0 mm 0.0 W/m2 CLR
19:46 8.8 °C 2.3 °C 1023.9 hPa WSW 7.4 km/h   64 % 0.0 mm 0.0 W/m2 CLR
19:51 8.8 °C 2.3 °C 1023.9 hPa West 14.8 km/h 14.8 km/h 64 % 0.0 mm 0.0 W/m2 CLR
19:56 8.8 °C 2.3 °C 1024.3 hPa West 16.1 km/h 16.1 km/h 64 % 0.0 mm 0.0 W/m2 CLR
20:01 8.8 °C 2.6 °C 1024.3 hPa West 14.8 km/h 14.8 km/h 65 % 0.0 mm 0.0 W/m2 CLR
20:06 8.8 °C 2.6 °C 1024.3 hPa West 24.1 km/h 24.1 km/h 65 % 0.0 mm 0.0 W/m2 CLR
20:11 8.8 °C 2.6 °C 1024.3 hPa West 24.1 km/h 24.1 km/h 65 % 0.0 mm 0.0 W/m2 CLR
20:16 8.9 °C 2.7 °C 1024.3 hPa West 22.2 km/h 22.2 km/h 65 % 0.0 mm 0.0 W/m2 CLR
20:21 8.9 °C 2.4 °C 1024.3 hPa West 20.4 km/h 20.4 km/h 64 % 0.0 mm 0.0 W/m2 CLR
20:26 8.9 °C 2.5 °C 1024.3 hPa West 18.5 km/h 18.5 km/h 64 % 0.0 mm 0.0 W/m2 CLR
20:31 8.9 °C 2.4 °C 1024.3 hPa West 18.5 km/h 18.5 km/h 64 % 0.0 mm 0.0 W/m2 CLR
20:36 8.8 °C 2.4 °C 1024.6 hPa West 18.5 km/h 18.5 km/h 64 % 0.0 mm 0.0 W/m2 CLR
20:41 8.8 °C 2.4 °C 1024.6 hPa West 22.2 km/h 22.2 km/h 64 % 0.0 mm 0.0 W/m2 CLR
20:46 8.8 °C 2.3 °C 1024.6 hPa West 18.5 km/h 18.5 km/h 64 % 0.0 mm 0.0 W/m2 CLR
20:51 8.7 °C 2.3 °C 1024.6 hPa West 18.5 km/h 18.5 km/h 64 % 0.0 mm 0.0 W/m2 CLR
20:56 8.6 °C 2.2 °C 1024.6 hPa West 14.8 km/h 14.8 km/h 64 % 0.0 mm 0.0 W/m2 CLR
21:01 8.3 °C 2.1 °C 1024.6 hPa WSW 20.4 km/h 20.4 km/h 65 % 0.0 mm 0.0 W/m2 CLR
21:06 8.1 °C 2.3 °C 1024.9 hPa WSW 16.7 km/h 16.7 km/h 67 % 0.0 mm 0.0 W/m2 CLR
21:12 7.7 °C 2.1 °C 1024.9 hPa WSW 14.8 km/h 14.8 km/h 68 % 0.0 mm 0.0 W/m2 CLR
21:17 7.3 °C 2.2 °C 1024.9 hPa WSW 11.1 km/h 11.1 km/h 70 % 0.0 mm 0.0 W/m2 CLR
21:27 7.7 °C 2.1 °C 1024.9 hPa West 24.1 km/h 24.1 km/h 68 % 0.0 mm 0.0 W/m2 CLR
21:32 8.0 °C 2.2 °C 1024.9 hPa West 18.5 km/h 18.5 km/h 67 % 0.0 mm 0.0 W/m2 CLR
21:37 8.1 °C 2.1 °C 1025.3 hPa West 18.5 km/h 18.5 km/h 66 % 0.0 mm 0.0 W/m2 CLR
21:42 8.1 °C 2.1 °C 1025.3 hPa West 24.1 km/h 24.1 km/h 66 % 0.0 mm 0.0 W/m2 CLR
21:47 8.1 °C 2.3 °C 1025.3 hPa West 20.4 km/h 20.4 km/h 67 % 0.0 mm 0.0 W/m2 CLR
21:52 7.9 °C 2.1 °C 1025.3 hPa West 16.7 km/h 16.7 km/h 67 % 0.0 mm 0.0 W/m2 CLR
21:57 7.9 °C 2.1 °C 1025.3 hPa West 20.4 km/h 20.4 km/h 67 % 0.0 mm 0.0 W/m2 CLR
22:02 8.1 °C 2.1 °C 1025.6 hPa West 24.1 km/h 24.1 km/h 66 % 0.0 mm 0.0 W/m2 CLR
22:07 8.1 °C 2.1 °C 1025.6 hPa West 24.1 km/h 24.1 km/h 66 % 0.0 mm 0.0 W/m2 CLR
22:12 8.1 °C 2.1 °C 1025.6 hPa West 22.2 km/h 22.2 km/h 66 % 0.0 mm 0.0 W/m2 CLR
22:17 8.2 °C 2.2 °C 1025.6 hPa West 20.4 km/h 20.4 km/h 66 % 0.0 mm 0.0 W/m2 CLR
22:22 8.1 °C 2.1 °C 1025.6 hPa West 25.9 km/h 25.9 km/h 66 % 0.0 mm 0.0 W/m2 CLR
22:27 8.1 °C 2.1 °C 1025.6 hPa West 20.4 km/h 20.4 km/h 66 % 0.0 mm 0.0 W/m2 CLR
22:32 8.0 °C 2.1 °C 1025.6 hPa West 20.4 km/h 20.4 km/h 66 % 0.0 mm 0.0 W/m2 CLR
22:37 7.9 °C 2.0 °C 1025.6 hPa West 24.1 km/h 24.1 km/h 66 % 0.0 mm 0.0 W/m2 CLR
22:42 7.9 °C 1.9 °C 1025.6 hPa West 27.8 km/h 27.8 km/h 66 % 0.0 mm 0.0 W/m2 CLR
22:47 7.8 °C 2.1 °C 1025.6 hPa West 24.1 km/h 24.1 km/h 67 % 0.0 mm 0.0 W/m2 CLR
22:52 7.7 °C 1.9 °C 1025.6 hPa West 24.1 km/h 24.1 km/h 67 % 0.0 mm 0.0 W/m2 CLR
22:57 7.6 °C 1.9 °C 1025.6 hPa West 24.1 km/h 24.1 km/h 67 % 0.0 mm 0.0 W/m2 CLR
23:02 7.4 °C 1.9 °C 1026.0 hPa West 27.8 km/h 27.8 km/h 68 % 0.0 mm 0.0 W/m2 CLR
23:07 7.4 °C 1.9 °C 1025.6 hPa West 20.9 km/h 20.9 km/h 68 % 0.0 mm 0.0 W/m2 CLR
23:12 7.4 °C 2.1 °C 1026.0 hPa West 25.9 km/h 25.9 km/h 69 % 0.0 mm 0.0 W/m2 CLR
23:17 7.3 °C 2.0 °C 1026.0 hPa West 22.5 km/h 22.5 km/h 69 % 0.0 mm 0.0 W/m2 CLR
23:22 7.3 °C 2.0 °C 1026.0 hPa West 20.9 km/h 20.9 km/h 69 % 0.0 mm 0.0 W/m2 CLR
23:27 7.3 °C 2.0 °C 1026.0 hPa West 19.3 km/h 19.3 km/h 69 % 0.0 mm 0.0 W/m2 CLR
23:32 7.3 °C 1.9 °C 1026.0 hPa West 16.7 km/h 16.7 km/h 69 % 0.0 mm 0.0 W/m2 CLR
23:37 7.2 °C 2.1 °C 1026.0 hPa West 20.4 km/h 20.4 km/h 70 % 0.0 mm 0.0 W/m2 CLR
23:42 7.3 °C 1.9 °C 1026.0 hPa West 18.5 km/h 18.5 km/h 69 % 0.0 mm 0.0 W/m2 CLR
23:47 7.2 °C 1.9 °C 1026.0 hPa West 18.5 km/h 18.5 km/h 69 % 0.0 mm 0.0 W/m2 CLR
23:52 7.2 °C 1.9 °C 1026.0 hPa West 19.3 km/h 19.3 km/h 69 % 0.0 mm 0.0 W/m2 CLR
23:57 7.2 °C 1.9 °C 1026.0 hPa West 18.5 km/h 18.5 km/h 69 % 0.0 mm 0.0 W/m2 CLR
Lo Temps de Massalio
Compliments of Weather Underground - 1.25 mb